createdAt,value
2019-01-26T00:02:48.989Z,97680.62
2019-01-26T00:07:54.175Z,97676.92
2019-01-26T00:13:00.055Z,97671.97
2019-01-26T00:18:05.539Z,97664.58
2019-01-26T00:23:10.850Z,97654.70
2019-01-26T00:28:16.055Z,97639.48
2019-01-26T00:33:21.257Z,97633.16
2019-01-26T00:38:26.440Z,97611.73
2019-01-26T00:43:31.636Z,97595.83
2019-01-26T00:48:37.719Z,97585.45
2019-01-26T00:53:42.990Z,97591.02
2019-01-26T00:58:48.493Z,97581.14
2019-01-26T01:03:53.899Z,97560.88
2019-01-26T01:08:59.775Z,97549.23
2019-01-26T01:14:05.067Z,97564.19
2019-01-26T01:19:11.008Z,97545.25
2019-01-26T01:24:16.285Z,97525.83
2019-01-26T01:29:21.834Z,97521.30
2019-01-26T01:34:28.086Z,97518.75
2019-01-26T01:39:33.362Z,97519.30
2019-01-26T01:44:38.710Z,97507.66
2019-01-26T01:49:43.903Z,97507.99
2019-01-26T01:54:49.142Z,97499.58
2019-01-26T01:59:54.330Z,97485.46
2019-01-26T02:05:00.273Z,97477.49
2019-01-26T02:10:07.488Z,97476.67
2019-01-26T02:15:13.418Z,97469.05
2019-01-26T02:20:23.200Z,97471.81
2019-01-26T02:25:28.808Z,97484.16
2019-01-26T02:30:34.010Z,97467.39
2019-01-26T02:35:39.197Z,97461.55
2019-01-26T02:40:45.050Z,97450.20
2019-01-26T02:45:50.246Z,97447.61
2019-01-26T02:50:56.413Z,97448.27
2019-01-26T02:56:01.611Z,97437.54
2019-01-26T03:01:07.137Z,97439.83
2019-01-26T03:06:12.332Z,97444.03
2019-01-26T03:11:17.519Z,97434.45
2019-01-26T03:16:23.609Z,97426.66
2019-01-26T03:21:29.756Z,97421.62
2019-01-26T03:26:34.975Z,97422.11
2019-01-26T03:31:40.982Z,97421.64
2019-01-26T03:36:46.196Z,97402.33
2019-01-26T03:41:51.970Z,97409.61
2019-01-26T03:46:57.170Z,97415.16
2019-01-26T03:52:02.402Z,97408.66
2019-01-26T03:57:07.597Z,97410.27
2019-01-26T04:02:13.320Z,97412.86
2019-01-26T04:07:18.498Z,97408.48
2019-01-26T04:12:23.723Z,97408.66
2019-01-26T04:17:28.919Z,97409.30
2019-01-26T04:22:34.134Z,97406.06
2019-01-26T04:27:39.320Z,97416.45
2019-01-26T04:32:44.892Z,97404.59
2019-01-26T04:37:50.544Z,97399.38
2019-01-26T04:42:55.764Z,97409.95
2019-01-26T04:48:02.008Z,97398.56
2019-01-26T04:53:07.214Z,97403.45
2019-01-26T04:58:13.000Z,97405.71
2019-01-26T05:03:18.530Z,97405.57
2019-01-26T05:08:23.771Z,97406.70
2019-01-26T05:13:28.951Z,97408.00
2019-01-26T05:18:35.205Z,97395.96
2019-01-26T05:23:40.546Z,97401.02
2019-01-26T05:28:45.752Z,97398.25
2019-01-26T05:33:50.935Z,97400.38
2019-01-26T05:38:56.110Z,97402.97
2019-01-26T05:44:01.408Z,97408.65
2019-01-26T05:49:06.603Z,97404.58
2019-01-26T05:54:11.833Z,97401.97
2019-01-26T05:59:17.425Z,97397.25
2019-01-26T06:04:23.274Z,97403.09
2019-01-26T06:09:28.493Z,97410.42
2019-01-26T06:14:33.724Z,97406.69
2019-01-26T06:19:39.605Z,97408.80
2019-01-26T06:24:44.812Z,97412.20
2019-01-26T06:29:50.694Z,97408.63
2019-01-26T06:34:56.307Z,97406.20
2019-01-26T06:40:01.609Z,97405.03
2019-01-26T06:45:07.889Z,97404.72
2019-01-26T06:50:15.778Z,97411.22
2019-01-26T06:55:21.075Z,97406.02
2019-01-26T07:00:31.664Z,97401.12
2019-01-26T07:05:51.309Z,97397.38
2019-01-26T07:10:56.564Z,97394.95
2019-01-26T07:16:03.029Z,97400.80
2019-01-26T07:21:08.289Z,97400.95
2019-01-26T07:26:13.850Z,97392.32
2019-01-26T07:31:19.199Z,97382.38
2019-01-26T07:36:24.403Z,97381.25
2019-01-26T07:41:29.606Z,97371.64
2019-01-26T07:46:35.137Z,97377.48
2019-01-26T07:51:40.583Z,97367.84
2019-01-26T07:56:45.764Z,97369.95
2019-01-26T08:01:51.154Z,97362.60
2019-01-26T08:06:57.169Z,97360.45
2019-01-26T08:12:02.785Z,97349.70
2019-01-26T08:17:08.995Z,97351.14
2019-01-26T08:22:14.498Z,97343.77
2019-01-26T08:27:19.966Z,97339.19
2019-01-26T08:32:25.615Z,97333.44
2019-01-26T08:37:31.242Z,97315.82
2019-01-26T08:42:36.758Z,97308.58
2019-01-26T08:47:42.732Z,97306.77
2019-01-26T08:52:48.069Z,97303.04
2019-01-26T08:57:54.388Z,97297.80
2019-01-26T09:03:17.362Z,97289.80
2019-01-26T09:08:22.568Z,97290.28
2019-01-26T09:13:30.264Z,97278.52
2019-01-26T09:18:38.965Z,97272.64
2019-01-26T09:23:43.678Z,97272.61
2019-01-26T09:28:51.334Z,97265.39
2019-01-26T09:33:56.747Z,97261.22
2019-01-26T09:39:03.154Z,97253.84
2019-01-26T09:44:09.426Z,97254.77
2019-01-26T09:49:14.619Z,97244.93
2019-01-26T09:54:20.451Z,97249.59
2019-01-26T09:59:26.094Z,97250.36
2019-01-26T10:04:31.789Z,97263.36
2019-01-26T10:09:37.966Z,97267.23
2019-01-26T10:14:44.032Z,97260.67
2019-01-26T10:19:49.593Z,97259.32
2019-01-26T10:24:56.756Z,97251.45
2019-01-26T10:30:04.444Z,97250.05
2019-01-26T10:35:10.589Z,97245.08
2019-01-26T10:40:38.701Z,97253.20
2019-01-26T10:45:45.073Z,97239.72
2019-01-26T10:50:52.611Z,97235.41
2019-01-26T10:56:00.038Z,97236.90
2019-01-26T11:01:07.598Z,97230.70
2019-01-26T11:06:15.051Z,97232.94
2019-01-26T11:11:22.233Z,97226.97
2019-01-26T11:16:29.645Z,97226.48
2019-01-26T11:21:36.605Z,97221.53
2019-01-26T11:26:49.075Z,97216.83
2019-01-26T11:31:51.857Z,97212.91
2019-01-26T11:36:58.554Z,97206.94
2019-01-26T11:42:05.371Z,97199.53
2019-01-26T11:47:16.838Z,97200.83
2019-01-26T11:52:24.503Z,97191.64
2019-01-26T11:57:34.390Z,97188.37
2019-01-26T12:02:47.664Z,97181.11
2019-01-26T12:07:55.080Z,97172.40
2019-01-26T12:13:02.675Z,97170.23
2019-01-26T12:18:10.958Z,97173.55
2019-01-26T12:23:18.309Z,97178.33
2019-01-26T12:28:26.220Z,97178.24
2019-01-26T12:33:33.584Z,97172.48
2019-01-26T12:38:41.584Z,97174.89
2019-01-26T12:43:49.038Z,97167.44
2019-01-26T12:48:56.199Z,97161.76
2019-01-26T12:54:03.687Z,97158.56
2019-01-26T12:59:11.008Z,97157.98
2019-01-26T13:04:18.704Z,97163.77
2019-01-26T13:09:26.622Z,97163.27
2019-01-26T13:14:35.973Z,97157.22
2019-01-26T13:19:43.489Z,97164.75
2019-01-26T13:24:50.977Z,97167.95
2019-01-26T13:29:58.516Z,97164.14
2019-01-26T13:35:06.503Z,97166.06
2019-01-26T13:40:17.044Z,97170.10
2019-01-26T13:45:25.940Z,97163.17
2019-01-26T13:50:33.977Z,97176.16
2019-01-26T13:55:42.820Z,97171.53
2019-01-26T14:00:50.911Z,97169.56
2019-01-26T14:05:57.931Z,97165.95
2019-01-26T14:11:05.840Z,97169.79
2019-01-26T14:16:15.140Z,97165.95
2019-01-26T14:21:23.200Z,97164.98
2019-01-26T14:26:31.143Z,97169.53
2019-01-26T14:31:38.816Z,97166.73
2019-01-26T14:36:46.896Z,97168.83
2019-01-26T14:41:54.177Z,97173.08
2019-01-26T14:47:01.607Z,97167.55
2019-01-26T14:52:09.454Z,97172.17
2019-01-26T14:57:16.614Z,97159.92
2019-01-26T15:02:24.528Z,97154.58
2019-01-26T15:07:31.898Z,97153.98
2019-01-26T15:12:39.452Z,97152.77
2019-01-26T15:17:46.944Z,97148.86
2019-01-26T15:22:54.288Z,97151.70
2019-01-26T15:28:02.571Z,97152.06
2019-01-26T15:33:11.291Z,97151.49
2019-01-26T15:38:19.631Z,97145.03
2019-01-26T15:43:27.227Z,97157.33
2019-01-26T15:48:35.387Z,97137.00
2019-01-26T15:53:43.347Z,97138.59
2019-01-26T15:58:51.768Z,97136.80
2019-01-26T16:03:59.326Z,97132.36
2019-01-26T16:09:08.780Z,97136.80
2019-01-26T16:14:17.059Z,97151.70
2019-01-26T16:19:25.671Z,97143.87
2019-01-26T16:24:33.660Z,97142.36
2019-01-26T16:29:43.381Z,97140.34
2019-01-26T16:34:52.318Z,97136.72
2019-01-26T16:40:02.230Z,97133.78
2019-01-26T16:45:16.381Z,97127.95
2019-01-26T16:50:28.013Z,97129.37
2019-01-26T16:55:35.977Z,97118.99
2019-01-26T17:00:45.966Z,97120.80
2019-01-26T17:05:55.075Z,97130.48
2019-01-26T17:11:03.716Z,97118.28
2019-01-26T17:16:11.885Z,97116.77
2019-01-26T17:21:20.198Z,97125.31
2019-01-26T17:26:27.919Z,97125.97
2019-01-26T17:31:35.421Z,97126.64
2019-01-26T17:36:42.705Z,97123.48
2019-01-26T17:41:50.790Z,97121.15
2019-01-26T17:46:58.605Z,97118.47
2019-01-26T17:52:06.336Z,97114.83
2019-01-26T17:57:14.572Z,97114.30
2019-01-26T18:02:22.403Z,97119.24
2019-01-26T18:07:30.433Z,97105.92
2019-01-26T18:12:38.614Z,97111.44
2019-01-26T18:17:46.903Z,97110.50
2019-01-26T18:22:55.430Z,97098.19
2019-01-26T18:28:03.441Z,97103.22
2019-01-26T18:33:12.537Z,97094.96
2019-01-26T18:38:21.337Z,97098.31
2019-01-26T18:43:30.209Z,97087.92
2019-01-26T18:48:39.140Z,97072.31
2019-01-26T18:53:48.271Z,97084.09
2019-01-26T18:58:58.209Z,97072.69
2019-01-26T19:04:27.943Z,97074.73
2019-01-26T19:09:37.616Z,97064.06
2019-01-26T19:14:47.716Z,97047.38
2019-01-26T19:19:58.136Z,97052.87
2019-01-26T19:25:10.603Z,97041.21
2019-01-26T19:30:22.309Z,97048.19
2019-01-26T19:35:32.657Z,97041.36
2019-01-26T19:40:43.427Z,97037.52
2019-01-26T19:45:55.919Z,97021.44
2019-01-26T19:51:09.855Z,97025.83
2019-01-26T19:56:16.916Z,97021.13
2019-01-26T20:01:27.120Z,97023.36
2019-01-26T20:06:37.292Z,97008.58
2019-01-26T20:11:49.873Z,97024.00
2019-01-26T20:17:00.165Z,97009.31
2019-01-26T20:22:09.996Z,96991.75
2019-01-26T20:27:19.439Z,96988.23
2019-01-26T20:32:33.716Z,96974.55
2019-01-26T20:37:44.383Z,96969.67
2019-01-26T20:42:53.856Z,96967.67
2019-01-26T20:48:05.553Z,96957.16
2019-01-26T20:53:16.216Z,96950.41
2019-01-26T20:58:25.925Z,96939.46
2019-01-26T21:03:36.161Z,96925.77
2019-01-26T21:08:47.187Z,96914.61
2019-01-26T21:13:57.160Z,96915.54
2019-01-26T21:19:06.076Z,96907.28
2019-01-26T21:24:15.547Z,96880.61
2019-01-26T21:29:28.116Z,96879.19
2019-01-26T21:34:37.155Z,96881.50
2019-01-26T21:39:47.042Z,96891.91
2019-01-26T21:44:55.600Z,96859.98
2019-01-26T21:50:07.365Z,96880.64
2019-01-26T21:55:16.273Z,96871.45
2019-01-26T22:00:30.336Z,96889.38
2019-01-26T22:05:38.185Z,96864.91
2019-01-26T22:10:45.889Z,96871.82
2019-01-26T22:15:53.972Z,96863.03
2019-01-26T22:21:01.476Z,96854.88
2019-01-26T22:26:09.987Z,96844.92
2019-01-26T22:31:17.812Z,96839.09
2019-01-26T22:36:26.713Z,96836.56
2019-01-26T22:41:34.735Z,96821.98
2019-01-26T22:46:42.463Z,96817.48
2019-01-26T22:51:53.433Z,96821.38
2019-01-26T22:56:58.212Z,96819.08
2019-01-26T23:02:04.343Z,96806.19
2019-01-26T23:07:21.271Z,96788.62
2019-01-26T23:12:48.019Z,96786.59
2019-01-26T23:18:38.239Z,96785.29
2019-01-26T23:24:32.840Z,96781.08
2019-01-26T23:29:47.483Z,96767.09
2019-01-26T23:34:52.662Z,96751.34
2019-01-26T23:39:58.750Z,96742.76
2019-01-26T23:45:04.716Z,96734.72
2019-01-26T23:50:09.900Z,96723.66
2019-01-26T23:55:16.762Z,96728.62
